createdAt,value
2018-01-29T00:02:10.559Z,9.66
2018-01-29T00:04:38.140Z,9.58
2018-01-29T00:07:05.749Z,9.60
2018-01-29T00:09:33.315Z,9.52
2018-01-29T00:12:00.903Z,9.49
2018-01-29T00:14:28.553Z,9.56
2018-01-29T00:16:56.030Z,9.65
2018-01-29T00:19:23.527Z,9.64
2018-01-29T00:21:51.005Z,9.59
2018-01-29T00:24:18.533Z,9.62
2018-01-29T00:26:46.021Z,9.74
2018-01-29T00:29:13.538Z,9.83
2018-01-29T00:31:42.028Z,9.89
2018-01-29T00:34:09.490Z,9.92
2018-01-29T00:36:36.998Z,9.95
2018-01-29T00:39:04.484Z,9.90
2018-01-29T00:41:31.989Z,9.86
2018-01-29T00:43:59.515Z,9.86
2018-01-29T00:46:27.211Z,9.79
2018-01-29T00:48:55.217Z,9.79
2018-01-29T00:51:22.682Z,9.81
2018-01-29T00:53:50.186Z,9.84
2018-01-29T00:56:17.672Z,9.85
2018-01-29T00:58:45.209Z,9.84
2018-01-29T01:01:12.778Z,9.83
2018-01-29T01:03:40.691Z,9.76
2018-01-29T01:06:08.164Z,9.77
2018-01-29T01:08:35.665Z,9.76
2018-01-29T01:11:04.006Z,9.78
2018-01-29T01:13:31.561Z,9.75
2018-01-29T01:15:59.156Z,9.73
2018-01-29T01:18:26.627Z,9.74
2018-01-29T01:20:54.124Z,9.74
2018-01-29T01:23:21.617Z,9.72
2018-01-29T01:25:49.105Z,9.72
2018-01-29T01:28:16.605Z,9.70
2018-01-29T01:30:44.079Z,9.65
2018-01-29T01:33:11.593Z,9.63
2018-01-29T01:35:39.085Z,9.59
2018-01-29T01:38:06.634Z,9.56
2018-01-29T01:40:34.201Z,9.53
2018-01-29T01:43:01.685Z,9.51
2018-01-29T01:45:29.198Z,9.49
2018-01-29T01:47:56.684Z,9.43
2018-01-29T01:50:24.198Z,9.39
2018-01-29T01:52:51.675Z,9.35
2018-01-29T01:55:19.218Z,9.35
2018-01-29T01:57:47.312Z,9.28
2018-01-29T02:00:14.856Z,9.20
2018-01-29T02:02:42.421Z,9.19
2018-01-29T02:05:10.057Z,9.15
2018-01-29T02:07:37.635Z,9.13
2018-01-29T02:10:05.118Z,9.15
2018-01-29T02:12:32.674Z,9.17
2018-01-29T02:15:00.168Z,9.17
2018-01-29T02:17:27.649Z,9.20
2018-01-29T02:19:55.177Z,9.24
2018-01-29T02:22:22.662Z,9.27
2018-01-29T02:24:50.172Z,9.27
2018-01-29T02:27:17.658Z,9.32
2018-01-29T02:29:45.164Z,9.30
2018-01-29T02:32:12.635Z,9.25
2018-01-29T02:34:40.230Z,9.28
2018-01-29T02:37:07.705Z,9.31
2018-01-29T02:39:35.307Z,9.33
2018-01-29T02:42:02.799Z,9.34
2018-01-29T02:44:30.285Z,9.33
2018-01-29T02:46:57.822Z,9.40
2018-01-29T02:49:25.297Z,9.41
2018-01-29T02:51:52.800Z,9.48
2018-01-29T02:54:20.294Z,9.52
2018-01-29T02:56:47.803Z,9.52
2018-01-29T02:59:15.298Z,9.59
2018-01-29T03:01:42.784Z,9.64
2018-01-29T03:04:10.285Z,9.68
2018-01-29T03:06:37.771Z,9.74
2018-01-29T03:09:05.291Z,9.81
2018-01-29T03:11:32.944Z,9.82
2018-01-29T03:14:00.513Z,9.82
2018-01-29T03:16:28.887Z,9.85
2018-01-29T03:18:56.449Z,9.86
2018-01-29T03:21:23.962Z,9.89
2018-01-29T03:23:55.762Z,9.90
2018-01-29T03:26:23.275Z,9.92
2018-01-29T03:28:50.751Z,9.84
2018-01-29T03:31:18.421Z,9.80
2018-01-29T03:33:46.023Z,9.77
2018-01-29T03:36:17.596Z,9.80
2018-01-29T03:38:45.245Z,9.88
2018-01-29T03:41:12.837Z,9.92
2018-01-29T03:43:40.372Z,9.96
2018-01-29T03:46:08.008Z,9.96
2018-01-29T03:48:35.618Z,9.96
2018-01-29T03:51:03.098Z,9.79
2018-01-29T03:53:30.603Z,9.69
2018-01-29T03:55:58.134Z,9.61
2018-01-29T03:58:26.898Z,9.56
2018-01-29T04:00:54.651Z,9.49
2018-01-29T04:03:22.140Z,9.59
2018-01-29T04:05:49.712Z,9.58
2018-01-29T04:08:17.327Z,9.45
2018-01-29T04:10:44.795Z,9.46
2018-01-29T04:13:12.293Z,9.47
2018-01-29T04:15:39.769Z,9.53
2018-01-29T04:18:07.271Z,9.61
2018-01-29T04:20:34.749Z,9.46
2018-01-29T04:23:02.247Z,9.39
2018-01-29T04:25:29.730Z,9.38
2018-01-29T04:27:57.239Z,9.34
2018-01-29T04:30:24.716Z,9.23
2018-01-29T04:32:52.205Z,9.27
2018-01-29T04:35:19.798Z,9.31
2018-01-29T04:37:47.307Z,9.33
2018-01-29T04:40:14.804Z,9.35
2018-01-29T04:42:42.287Z,9.43
2018-01-29T04:45:09.787Z,9.44
2018-01-29T04:47:37.300Z,9.45
2018-01-29T04:50:04.782Z,9.56
2018-01-29T04:52:32.302Z,9.59
2018-01-29T04:55:00.406Z,9.65
2018-01-29T04:57:27.909Z,9.62
2018-01-29T04:59:55.421Z,9.53
2018-01-29T05:02:22.936Z,9.52
2018-01-29T05:04:51.103Z,9.41
2018-01-29T05:07:19.380Z,9.37
2018-01-29T05:09:47.070Z,9.39
2018-01-29T05:12:14.615Z,9.49
2018-01-29T05:14:42.113Z,9.47
2018-01-29T05:17:09.777Z,9.40
2018-01-29T05:19:37.390Z,9.31
2018-01-29T05:22:04.980Z,9.27
2018-01-29T05:24:32.513Z,9.31
2018-01-29T05:27:00.093Z,9.44
2018-01-29T05:29:27.566Z,9.52
2018-01-29T05:31:55.071Z,9.49
2018-01-29T05:34:22.878Z,9.46
2018-01-29T05:36:56.160Z,9.33
2018-01-29T05:39:23.667Z,9.35
2018-01-29T05:41:51.189Z,9.21
2018-01-29T05:44:18.701Z,9.26
2018-01-29T05:46:46.210Z,9.24
2018-01-29T05:49:14.585Z,9.22
2018-01-29T05:51:42.067Z,9.17
2018-01-29T05:54:09.633Z,9.11
2018-01-29T05:56:37.154Z,9.06
2018-01-29T05:59:04.696Z,9.20
2018-01-29T06:01:32.298Z,9.33
2018-01-29T06:03:59.910Z,9.39
2018-01-29T06:06:27.534Z,9.34
2018-01-29T06:08:55.004Z,9.27
2018-01-29T06:11:23.241Z,9.30
2018-01-29T06:13:51.322Z,9.39
2018-01-29T06:16:18.855Z,9.39
2018-01-29T06:18:46.399Z,9.32
2018-01-29T06:21:13.946Z,9.39
2018-01-29T06:23:41.551Z,9.28
2018-01-29T06:26:09.190Z,9.17
2018-01-29T06:28:36.706Z,9.02
2018-01-29T06:31:04.218Z,9.11
2018-01-29T06:33:31.703Z,8.98
2018-01-29T06:35:59.564Z,9.00
2018-01-29T06:38:27.394Z,8.90
2018-01-29T06:40:54.878Z,8.80
2018-01-29T06:43:22.390Z,8.84
2018-01-29T06:45:49.870Z,8.82
2018-01-29T06:48:17.378Z,8.86
2018-01-29T06:50:44.970Z,8.93
2018-01-29T06:53:12.788Z,8.93
2018-01-29T06:55:40.292Z,8.84
2018-01-29T06:58:08.013Z,8.78
2018-01-29T07:00:35.547Z,8.74
2018-01-29T07:03:03.032Z,8.89
2018-01-29T07:05:30.668Z,8.85
2018-01-29T07:07:58.173Z,8.92
2018-01-29T07:10:25.679Z,9.03
2018-01-29T07:12:53.204Z,9.07
2018-01-29T07:15:20.713Z,9.16
2018-01-29T07:17:48.249Z,9.17
2018-01-29T07:20:17.295Z,9.31
2018-01-29T07:22:44.812Z,9.43
2018-01-29T07:25:12.317Z,9.31
2018-01-29T07:27:39.868Z,9.29
2018-01-29T07:30:07.400Z,9.34
2018-01-29T07:32:34.892Z,9.27
2018-01-29T07:35:02.385Z,9.25
2018-01-29T07:37:29.907Z,9.14
2018-01-29T07:39:57.391Z,9.11
2018-01-29T07:42:24.934Z,9.21
2018-01-29T07:44:52.411Z,9.28
2018-01-29T07:47:19.946Z,9.28
2018-01-29T07:49:47.449Z,9.35
2018-01-29T07:52:14.946Z,9.27
2018-01-29T07:54:42.483Z,9.24
2018-01-29T07:57:10.449Z,9.17
2018-01-29T07:59:38.050Z,9.17
2018-01-29T08:02:05.542Z,9.19
2018-01-29T08:04:33.038Z,9.13
2018-01-29T08:07:00.560Z,9.18
2018-01-29T08:09:28.089Z,9.16
2018-01-29T08:11:55.595Z,9.20
2018-01-29T08:14:23.204Z,9.23
2018-01-29T08:16:50.787Z,9.18
2018-01-29T08:19:18.323Z,9.31
2018-01-29T08:21:45.906Z,9.17
2018-01-29T08:24:13.407Z,9.08
2018-01-29T08:26:41.881Z,9.23
2018-01-29T08:29:09.422Z,9.33
2018-01-29T08:31:37.187Z,9.36
2018-01-29T08:34:05.256Z,9.45
2018-01-29T08:36:32.833Z,9.48
2018-01-29T08:39:00.335Z,9.42
2018-01-29T08:41:27.853Z,9.36
2018-01-29T08:43:55.346Z,9.31
2018-01-29T08:46:23.614Z,9.41
2018-01-29T08:48:51.323Z,9.46
2018-01-29T08:51:18.899Z,9.67
2018-01-29T08:53:46.497Z,9.80
2018-01-29T08:56:14.094Z,9.84
2018-01-29T08:58:41.711Z,9.95
2018-01-29T09:01:09.313Z,9.91
2018-01-29T09:03:36.797Z,9.87
2018-01-29T09:06:04.313Z,9.86
2018-01-29T09:08:31.867Z,9.84
2018-01-29T09:10:59.376Z,9.82
2018-01-29T09:13:26.868Z,9.84
2018-01-29T09:15:54.450Z,9.90
2018-01-29T09:18:21.943Z,9.79
2018-01-29T09:20:49.462Z,9.84
2018-01-29T09:23:16.953Z,10.03
2018-01-29T09:25:44.533Z,10.10
2018-01-29T09:28:12.036Z,10.01
2018-01-29T09:30:39.529Z,9.99
2018-01-29T09:33:08.115Z,9.94
2018-01-29T09:35:35.619Z,9.98
2018-01-29T09:38:03.167Z,9.77
2018-01-29T09:40:30.787Z,9.92
2018-01-29T09:42:58.382Z,9.90
2018-01-29T09:45:25.896Z,9.76
2018-01-29T09:47:53.416Z,9.83
2018-01-29T09:50:20.973Z,9.82
2018-01-29T09:52:48.450Z,9.98
2018-01-29T09:55:16.000Z,10.00
2018-01-29T09:57:43.513Z,10.06
2018-01-29T10:00:11.015Z,10.03
2018-01-29T10:02:38.539Z,10.01
2018-01-29T10:05:06.640Z,9.96
2018-01-29T10:07:34.164Z,10.06
2018-01-29T10:10:01.745Z,9.94
2018-01-29T10:12:29.275Z,9.95
2018-01-29T10:14:56.856Z,10.00
2018-01-29T10:17:24.470Z,10.00
2018-01-29T10:19:52.034Z,10.09
2018-01-29T10:22:19.520Z,10.22
2018-01-29T10:24:47.045Z,10.24
2018-01-29T10:27:14.569Z,10.30
2018-01-29T10:29:42.095Z,10.35
2018-01-29T10:32:09.648Z,10.56
2018-01-29T10:34:37.140Z,10.53
2018-01-29T10:37:04.649Z,10.68
2018-01-29T10:39:32.145Z,10.88
2018-01-29T10:41:59.652Z,10.95
2018-01-29T10:44:27.141Z,11.09
2018-01-29T10:46:54.683Z,11.16
2018-01-29T10:49:22.853Z,11.37
2018-01-29T10:51:50.346Z,11.31
2018-01-29T10:54:18.539Z,11.16
2018-01-29T10:56:46.018Z,11.28
2018-01-29T10:59:13.538Z,11.41
2018-01-29T11:01:46.677Z,11.64
2018-01-29T11:04:14.204Z,11.46
2018-01-29T11:06:41.714Z,11.31
2018-01-29T11:09:09.246Z,11.46
2018-01-29T11:11:36.761Z,11.39
2018-01-29T11:14:04.245Z,11.51
2018-01-29T11:16:31.764Z,11.61
2018-01-29T11:18:59.253Z,12.02
2018-01-29T11:21:26.824Z,12.28
2018-01-29T11:23:54.324Z,12.47
2018-01-29T11:26:21.833Z,13.89
2018-01-29T11:28:49.677Z,14.82
2018-01-29T11:31:17.241Z,16.14
2018-01-29T11:33:44.831Z,16.03
2018-01-29T11:36:12.319Z,15.97
2018-01-29T11:38:39.821Z,16.96
2018-01-29T11:41:07.405Z,17.60
2018-01-29T11:43:34.991Z,18.08
2018-01-29T11:46:02.623Z,19.20
2018-01-29T11:48:30.209Z,19.67
2018-01-29T11:50:57.797Z,19.70
2018-01-29T11:53:25.371Z,19.95
2018-01-29T11:55:53.120Z,20.69
2018-01-29T11:58:20.657Z,20.45
2018-01-29T12:00:48.145Z,20.34
2018-01-29T12:03:15.703Z,20.84
2018-01-29T12:05:43.212Z,20.21
2018-01-29T12:08:10.721Z,19.57
2018-01-29T12:10:38.217Z,18.42
2018-01-29T12:13:05.739Z,16.98
2018-01-29T12:15:33.289Z,17.38
2018-01-29T12:18:01.269Z,17.61
2018-01-29T12:20:28.827Z,16.63
2018-01-29T12:22:56.395Z,17.58
2018-01-29T12:25:24.048Z,18.78
2018-01-29T12:27:51.610Z,17.97
2018-01-29T12:30:19.231Z,17.81
2018-01-29T12:32:47.049Z,18.13
2018-01-29T12:35:14.524Z,18.76
2018-01-29T12:37:42.049Z,17.13
2018-01-29T12:40:09.650Z,17.66
2018-01-29T12:42:37.141Z,18.33
2018-01-29T12:45:04.618Z,18.53
2018-01-29T12:47:32.136Z,17.81
2018-01-29T12:49:59.771Z,16.85
2018-01-29T12:52:27.327Z,16.02
2018-01-29T12:54:54.871Z,15.51
2018-01-29T12:57:22.396Z,15.24
2018-01-29T12:59:49.923Z,14.83
2018-01-29T13:02:17.442Z,14.55
2018-01-29T13:04:44.954Z,14.12
2018-01-29T13:07:12.462Z,13.98
2018-01-29T13:09:39.947Z,14.12
2018-01-29T13:12:07.532Z,13.92
2018-01-29T13:14:35.038Z,14.54
2018-01-29T13:17:02.582Z,15.38
2018-01-29T13:19:30.352Z,15.92
2018-01-29T13:21:58.133Z,16.49
2018-01-29T13:24:25.638Z,16.62
2018-01-29T13:26:53.116Z,16.76
2018-01-29T13:29:20.633Z,16.53
2018-01-29T13:31:48.585Z,15.54
2018-01-29T13:34:16.701Z,14.51
2018-01-29T13:36:44.694Z,14.06
2018-01-29T13:39:12.180Z,14.15
2018-01-29T13:41:39.702Z,14.07
2018-01-29T13:44:07.191Z,14.43
2018-01-29T13:46:34.736Z,14.66
2018-01-29T13:49:02.260Z,14.43
2018-01-29T13:51:29.822Z,13.93
2018-01-29T13:53:57.393Z,13.89
2018-01-29T13:56:24.920Z,13.83
2018-01-29T13:58:52.445Z,13.88
2018-01-29T14:01:19.934Z,13.88
2018-01-29T14:03:47.455Z,13.76
2018-01-29T14:06:15.112Z,13.86
2018-01-29T14:08:42.642Z,14.08
2018-01-29T14:11:10.113Z,14.05
2018-01-29T14:13:37.661Z,13.91
2018-01-29T14:16:05.153Z,13.61
2018-01-29T14:18:32.650Z,13.26
2018-01-29T14:21:00.151Z,13.15
2018-01-29T14:23:27.680Z,12.95
2018-01-29T14:25:56.014Z,12.93
2018-01-29T14:28:23.541Z,12.77
2018-01-29T14:30:51.119Z,12.69
2018-01-29T14:33:18.687Z,12.55
2018-01-29T14:35:46.858Z,12.65
2018-01-29T14:38:14.359Z,12.58
2018-01-29T14:40:41.879Z,12.55
2018-01-29T14:43:09.399Z,12.25
2018-01-29T14:45:37.133Z,12.03
2018-01-29T14:48:04.666Z,12.00
2018-01-29T14:50:32.183Z,11.94
2018-01-29T14:52:59.678Z,12.03
2018-01-29T14:55:27.214Z,12.04
2018-01-29T14:57:54.702Z,11.78
2018-01-29T15:00:22.255Z,11.76
2018-01-29T15:02:49.826Z,11.65
2018-01-29T15:05:17.598Z,11.66
2018-01-29T15:07:45.195Z,11.43
2018-01-29T15:10:12.688Z,11.26
2018-01-29T15:12:40.209Z,11.21
2018-01-29T15:15:07.696Z,11.24
2018-01-29T15:17:35.210Z,11.16
2018-01-29T15:20:02.718Z,11.17
2018-01-29T15:22:30.202Z,11.01
2018-01-29T15:24:57.804Z,10.98
2018-01-29T15:27:25.323Z,10.93
2018-01-29T15:29:53.460Z,10.96
2018-01-29T15:32:20.995Z,11.13
2018-01-29T15:34:48.854Z,11.33
2018-01-29T15:39:43.789Z,11.19
2018-01-29T15:42:11.374Z,11.21
2018-01-29T15:44:39.336Z,11.15
2018-01-29T15:47:06.869Z,10.97
2018-01-29T15:49:34.388Z,10.96
2018-01-29T15:52:01.923Z,10.84
2018-01-29T15:54:29.432Z,10.96
2018-01-29T15:56:56.985Z,10.97
2018-01-29T15:59:24.553Z,11.10
2018-01-29T16:01:52.058Z,11.10
2018-01-29T16:04:19.638Z,11.01
2018-01-29T16:06:47.154Z,10.92
2018-01-29T16:09:14.741Z,10.78
2018-01-29T16:11:42.832Z,10.84
2018-01-29T16:14:10.385Z,10.94
2018-01-29T16:16:37.929Z,10.98
2018-01-29T16:19:05.397Z,11.06
2018-01-29T16:21:32.909Z,11.03
2018-01-29T16:24:00.438Z,11.06
2018-01-29T16:26:28.001Z,11.07
2018-01-29T16:28:55.574Z,11.19
2018-01-29T16:31:23.174Z,11.14
2018-01-29T16:36:17.513Z,10.93
2018-01-29T16:38:45.019Z,10.88
2018-01-29T16:41:13.016Z,10.97
2018-01-29T16:43:40.562Z,11.01
2018-01-29T16:46:08.098Z,11.00
2018-01-29T16:48:35.583Z,10.95
2018-01-29T16:51:03.076Z,11.10
2018-01-29T16:53:30.560Z,11.11
2018-01-29T16:55:58.072Z,11.14
2018-01-29T16:58:25.581Z,11.14
2018-01-29T17:00:53.085Z,11.19
2018-01-29T17:03:20.766Z,11.13
2018-01-29T17:05:48.277Z,11.10
2018-01-29T17:08:15.824Z,11.11
2018-01-29T17:10:43.446Z,11.00
2018-01-29T17:13:11.087Z,10.95
2018-01-29T17:15:38.683Z,10.90
2018-01-29T17:18:06.230Z,10.94
2018-01-29T17:20:33.883Z,10.87
2018-01-29T17:23:01.379Z,10.82
2018-01-29T17:25:28.891Z,10.87
2018-01-29T17:27:57.058Z,10.90
2018-01-29T17:30:24.570Z,10.95
2018-01-29T17:32:52.088Z,10.87
2018-01-29T17:35:20.376Z,10.87
2018-01-29T17:37:48.030Z,10.86
2018-01-29T17:40:15.578Z,10.98
2018-01-29T17:42:43.143Z,10.88
2018-01-29T17:45:10.628Z,10.64
2018-01-29T17:47:38.154Z,10.66
2018-01-29T17:50:05.656Z,10.66
2018-01-29T17:52:33.168Z,10.70
2018-01-29T17:55:00.698Z,10.75
2018-01-29T17:57:28.274Z,10.93
2018-01-29T17:59:55.819Z,10.92
2018-01-29T18:02:25.777Z,11.04
2018-01-29T18:04:54.606Z,11.12
2018-01-29T18:07:22.226Z,11.03
2018-01-29T18:10:00.781Z,10.94
2018-01-29T18:12:28.314Z,10.95
2018-01-29T18:14:56.724Z,10.77
2018-01-29T18:17:25.018Z,10.79
2018-01-29T18:19:57.605Z,10.57
2018-01-29T18:22:26.434Z,10.59
2018-01-29T18:24:54.084Z,10.54
2018-01-29T18:33:01.742Z,10.73
2018-01-29T18:35:29.283Z,10.73
2018-01-29T18:37:58.089Z,10.76
2018-01-29T18:40:26.066Z,10.59
2018-01-29T18:42:53.666Z,10.61
2018-01-29T18:45:25.958Z,10.66
2018-01-29T18:47:54.127Z,10.60
2018-01-29T18:50:23.972Z,10.56
2018-01-29T18:52:51.557Z,10.56
2018-01-29T18:55:20.154Z,10.54
2018-01-29T18:57:47.922Z,10.68
2018-01-29T19:00:16.825Z,10.79
2018-01-29T19:02:48.615Z,10.82
2018-01-29T19:05:16.145Z,10.79
2018-01-29T19:35:46.765Z,10.64
2018-01-29T19:38:14.732Z,10.81
2018-01-29T19:40:42.248Z,10.84
2018-01-29T19:43:18.643Z,10.90
2018-01-29T19:45:48.635Z,10.75
2018-01-29T19:48:19.061Z,10.74
2018-01-29T19:50:46.653Z,10.76
2018-01-29T19:53:14.246Z,10.85
2018-01-29T19:55:44.182Z,10.96
2018-01-29T19:58:12.653Z,10.97
2018-01-29T20:14:34.563Z,10.92
2018-01-29T20:17:02.805Z,10.91
2018-01-29T20:19:30.335Z,10.76
2018-01-29T20:21:57.889Z,10.73
2018-01-29T20:24:56.406Z,10.79
2018-01-29T20:27:56.010Z,10.77
2018-01-29T20:55:24.219Z,10.78
2018-01-29T20:57:57.858Z,10.86
2018-01-29T22:14:10.199Z,9.95
2018-01-29T22:16:37.687Z,9.95
2018-01-29T22:19:05.182Z,9.96
2018-01-29T22:21:32.688Z,10.07
2018-01-29T22:24:00.190Z,10.11
2018-01-29T22:26:27.708Z,10.14
2018-01-29T22:28:55.288Z,10.19
2018-01-29T22:31:22.784Z,10.23
2018-01-29T22:33:50.292Z,10.29
2018-01-29T22:36:17.794Z,10.27
2018-01-29T22:38:45.280Z,10.23
2018-01-29T22:41:12.794Z,10.28
2018-01-29T22:43:40.365Z,10.29
2018-01-29T22:46:07.883Z,10.27
2018-01-29T22:48:35.417Z,10.21
2018-01-29T22:51:03.370Z,10.36
2018-01-29T22:53:30.860Z,10.23
2018-01-29T22:55:58.892Z,10.26
2018-01-29T22:58:26.413Z,10.13
2018-01-29T23:00:53.918Z,10.15
2018-01-29T23:03:21.435Z,10.16
2018-01-29T23:05:48.929Z,10.22
2018-01-29T23:08:16.462Z,10.24
2018-01-29T23:10:43.942Z,10.28
2018-01-29T23:13:11.475Z,10.33
2018-01-29T23:15:39.378Z,10.42
2018-01-29T23:18:06.950Z,10.35
2018-01-29T23:20:34.990Z,10.29
2018-01-29T23:23:02.484Z,10.22
2018-01-29T23:25:30.000Z,10.24
2018-01-29T23:27:57.542Z,10.32
2018-01-29T23:30:25.112Z,10.37
2018-01-29T23:32:52.704Z,10.44
2018-01-29T23:35:20.301Z,10.45
2018-01-29T23:37:47.899Z,10.38
2018-01-29T23:40:15.393Z,10.34
2018-01-29T23:42:44.274Z,10.27
2018-01-29T23:45:11.773Z,10.23
2018-01-29T23:47:39.300Z,10.23
2018-01-29T23:50:06.801Z,10.21
2018-01-29T23:52:34.341Z,10.24
2018-01-29T23:55:01.983Z,10.29
2018-01-29T23:57:29.592Z,10.21
2018-01-29T23:59:57.102Z,10.22
